Time;durP1;ratioP1;P1;durP2;ratioP2;P2;SDS_P1;SDS_P2;PMS_P1;PMS_P2;Temp;Humidity;BMP_temperature;BMP_pressure;BME280_temperature;BME280_humidity;BME280_pressure;Samples;Min_cycle;Max_cycle;Signal;HPM_P1;HPM_P2
2022/01/19 00:00:51;;;;;;;7.28;3.33;;;;;;;3.52;47.33;101994.38;5037921;28;20035;-79
2022/01/19 00:03:17;;;;;;;8.25;3.33;;;;;;;3.57;47.03;101997.78;5037428;28;20392;-79
2022/01/19 00:05:44;;;;;;;9.15;3.85;;;;;;;3.52;46.92;101981.06;5036065;28;20025;-79
2022/01/19 00:08:16;;;;;;;7.50;3.75;;;;;;;3.56;46.73;102012.84;5033062;28;20040;-78
2022/01/19 00:10:41;;;;;;;8.73;3.60;;;;;;;3.49;47.29;101997.13;5039922;28;20036;-81
2022/01/19 00:13:06;;;;;;;7.57;4.43;;;;;;;3.46;47.50;102011.38;5036838;28;20033;-78
2022/01/19 00:15:32;;;;;;;17.02;4.85;;;;;;;3.46;47.44;102018.50;5033385;28;20565;-79
2022/01/19 00:17:59;;;;;;;6.72;4.32;;;;;;;3.48;47.67;102016.66;5033403;28;20022;-79
2022/01/19 00:20:33;;;;;;;10.82;3.92;;;;;;;3.47;47.27;102013.13;5033393;28;20025;-80
2022/01/19 00:23:00;;;;;;;9.32;3.65;;;;;;;3.34;47.22;102009.09;5032473;28;20368;-80
2022/01/19 00:25:26;;;;;;;8.48;4.22;;;;;;;3.41;47.12;102004.47;5032671;28;20041;-79
2022/01/19 00:27:51;;;;;;;8.52;4.05;;;;;;;3.40;47.31;102008.03;5033805;28;20479;-78
2022/01/19 00:30:18;;;;;;;8.77;4.43;;;;;;;3.38;47.25;101993.91;5032221;28;20159;-78
2022/01/19 00:32:43;;;;;;;8.75;4.18;;;;;;;3.44;47.14;102001.72;5033025;28;20029;-78
2022/01/19 00:35:10;;;;;;;6.15;3.42;;;;;;;3.37;46.86;101987.72;5032732;28;20034;-78
2022/01/19 00:37:37;;;;;;;6.60;3.63;;;;;;;3.44;46.53;101985.75;5033351;28;20060;-79
2022/01/19 00:40:05;;;;;;;9.23;3.47;;;;;;;3.43;46.17;101994.63;5034713;28;20542;-78
2022/01/19 00:42:30;;;;;;;8.02;4.07;;;;;;;3.45;45.62;101988.38;5036852;28;20104;-79
2022/01/19 00:44:56;;;;;;;8.98;3.20;;;;;;;3.45;45.01;101975.09;5037369;28;20498;-78
2022/01/19 00:47:21;;;;;;;9.27;3.13;;;;;;;3.43;45.05;101991.97;5035743;28;20041;-80
2022/01/19 00:49:47;;;;;;;7.75;3.45;;;;;;;3.41;45.09;101989.38;5037047;28;20025;-80
2022/01/19 00:52:13;;;;;;;8.90;3.78;;;;;;;3.41;45.04;101996.50;5037049;28;20368;-79
2022/01/19 00:54:41;;;;;;;6.00;3.50;;;;;;;3.42;45.10;101983.16;5036630;28;20101;-79
2022/01/19 00:57:08;;;;;;;10.75;3.65;;;;;;;3.34;45.44;101993.13;5036977;28;20033;-80
2022/01/19 00:59:34;;;;;;;5.72;2.95;;;;;;;3.35;45.71;102007.31;5037409;28;20043;-80
2022/01/19 01:02:01;;;;;;;6.35;3.72;;;;;;;3.35;45.22;102005.53;5036888;28;20060;-80
2022/01/19 01:04:27;;;;;;;6.78;3.03;;;;;;;3.36;45.91;102001.09;5037020;28;20101;-79
2022/01/19 01:06:52;;;;;;;7.47;3.55;;;;;;;3.31;45.82;101993.22;5036601;28;20068;-79
2022/01/19 01:09:19;;;;;;;8.85;3.17;;;;;;;3.30;45.68;101989.69;5036676;28;20053;-79
2022/01/19 01:12:08;;;;;;;12.23;3.03;;;;;;;3.24;45.58;101992.53;5037194;28;20025;-79
2022/01/19 01:20:07;;;;;;;6.35;3.30;;;;;;;3.22;45.44;101991.72;5045017;28;20052;-79
2022/01/19 01:22:33;;;;;;;10.88;3.22;;;;;;;3.18;45.67;102000.69;5052721;28;20029;-79
2022/01/19 01:24:58;;;;;;;5.07;2.92;;;;;;;3.22;45.61;102005.00;5037272;28;20029;-80
2022/01/19 01:27:24;;;;;;;7.63;3.83;;;;;;;3.21;45.69;102005.91;5036863;28;20419;-79
2022/01/19 01:29:49;;;;;;;8.35;3.90;;;;;;;3.20;45.76;102013.94;5036888;28;20033;-79
2022/01/19 01:32:15;;;;;;;8.38;3.38;;;;;;;3.19;45.60;102022.84;5036608;28;20029;-79
2022/01/19 01:34:41;;;;;;;8.52;4.20;;;;;;;3.19;45.57;102017.50;5035582;28;20463;-78
2022/01/19 01:37:06;;;;;;;7.80;3.38;;;;;;;3.17;45.55;102011.38;5036282;28;20044;-79
2022/01/19 01:39:33;;;;;;;14.80;4.88;;;;;;;3.18;45.66;102011.31;5036355;28;20053;-79
2022/01/19 01:41:58;;;;;;;10.63;3.88;;;;;;;3.16;45.80;102007.84;5038466;28;20202;-80
2022/01/19 01:44:24;;;;;;;8.55;3.38;;;;;;;3.18;45.68;102007.81;5035624;28;20116;-79
2022/01/19 01:46:58;;;;;;;10.02;4.55;;;;;;;3.17;45.71;102012.25;5035660;28;20036;-78
2022/01/19 01:49:45;;;;;;;8.57;3.42;;;;;;;3.11;45.63;102020.41;5052844;28;20096;-78
2022/01/19 01:54:56;;;;;;;7.75;4.28;;;;;;;3.07;45.59;102013.44;5035730;28;20097;-78
2022/01/19 01:57:22;;;;;;;12.25;4.18;;;;;;;2.96;45.80;102007.56;5035041;28;20029;-78
2022/01/19 01:59:47;;;;;;;10.90;4.00;;;;;;;2.98;45.77;102005.72;5034012;28;20378;-78
2022/01/19 02:02:14;;;;;;;10.80;3.88;;;;;;;2.99;45.75;102004.81;5035582;28;20091;-78
2022/01/19 02:04:41;;;;;;;14.02;3.90;;;;;;;2.98;45.60;101999.53;5034833;28;20044;-78
2022/01/19 02:09:50;;;;;;;7.20;3.60;;;;;;;2.91;45.77;101996.16;5034692;28;20091;-78
2022/01/19 02:23:26;;;;;;;10.38;3.33;;;;;;;2.89;45.30;101998.00;5034688;28;20035;-78
2022/01/19 02:25:59;;;;;;;8.40;3.60;;;;;;;2.90;45.47;101990.91;5033746;28;20104;-78
2022/01/19 02:42:35;;;;;;;9.13;4.18;;;;;;;2.73;45.86;102004.66;5051844;28;20044;-77
2022/01/19 02:49:58;;;;;;;8.82;4.00;;;;;;;2.80;46.12;102021.28;5037957;28;20037;-77
2022/01/19 02:52:25;;;;;;;10.95;4.00;;;;;;;2.84;46.26;102022.97;5035612;28;20041;-77
2022/01/19 02:54:51;;;;;;;8.73;4.13;;;;;;;2.87;46.23;102028.19;5034811;28;20104;-79
2022/01/19 02:57:20;;;;;;;12.65;4.38;;;;;;;2.89;46.18;102031.66;5040008;28;20026;-79
2022/01/19 03:10:35;;;;;;;14.13;3.97;;;;;;;2.93;46.59;102026.25;5036602;28;20035;-78
2022/01/19 03:13:00;;;;;;;11.82;4.70;;;;;;;3.06;46.67;102040.03;5035558;28;20105;-79
2022/01/19 03:15:27;;;;;;;8.95;4.60;;;;;;;3.12;46.40;102045.22;5035399;28;20041;-79
2022/01/19 03:17:57;;;;;;;9.52;3.85;;;;;;;3.20;46.57;102046.72;5034196;28;20025;-80
2022/01/19 03:20:22;;;;;;;9.85;3.95;;;;;;;3.24;46.45;102045.72;5034296;28;20075;-79
2022/01/19 03:23:12;;;;;;;7.30;4.18;;;;;;;3.13;46.41;102020.34;5035061;28;20033;-78
2022/01/19 03:25:39;;;;;;;15.23;3.90;;;;;;;3.25;46.44;102046.59;5047784;28;20025;-83
2022/01/19 03:28:06;;;;;;;13.40;5.03;;;;;;;3.30;46.26;102045.53;5036334;28;20033;-78
2022/01/19 03:30:32;;;;;;;9.07;4.43;;;;;;;3.23;46.12;102053.75;5034023;28;20029;-78
2022/01/19 03:32:57;;;;;;;11.20;4.63;;;;;;;3.15;46.16;102053.09;5034247;28;20029;-78
2022/01/19 03:35:26;;;;;;;12.75;4.95;;;;;;;3.16;46.58;102062.78;5034096;28;20025;-78
2022/01/19 03:37:52;;;;;;;16.60;5.78;;;;;;;3.09;46.51;102056.78;5035204;28;20021;-80
2022/01/19 03:40:17;;;;;;;11.73;4.30;;;;;;;2.93;46.33;102050.16;5033670;28;20120;-77
2022/01/19 03:42:43;;;;;;;13.82;4.57;;;;;;;2.84;46.66;102055.72;5033546;28;20083;-77
2022/01/19 03:45:10;;;;;;;8.63;3.97;;;;;;;2.79;46.97;102062.91;5033644;28;20026;-78
2022/01/19 03:47:45;;;;;;;14.20;4.00;;;;;;;2.78;46.91;102071.81;5035620;28;20025;-79
2022/01/19 03:50:10;;;;;;;10.10;4.40;;;;;;;2.77;46.99;102064.75;5033884;28;20028;-79
2022/01/19 03:52:36;;;;;;;13.05;4.18;;;;;;;2.69;47.27;102064.94;5033113;28;20022;-79
2022/01/19 03:55:02;;;;;;;10.48;4.72;;;;;;;2.71;47.44;102070.22;5033465;28;20476;-79
2022/01/19 03:57:28;;;;;;;9.38;3.78;;;;;;;2.78;47.18;102070.94;5033182;28;20097;-79
2022/01/19 03:59:53;;;;;;;14.43;4.45;;;;;;;2.72;47.57;102072.00;5033517;28;20029;-78
2022/01/19 04:02:20;;;;;;;10.82;4.95;;;;;;;2.78;47.29;102076.25;5043639;28;20022;-80
2022/01/19 04:04:58;;;;;;;12.88;4.65;;;;;;;2.60;47.30;102061.69;5037319;28;20033;-80
2022/01/19 04:07:26;;;;;;;14.95;5.32;;;;;;;2.59;47.74;102082.06;5034182;28;20029;-78
2022/01/19 04:09:51;;;;;;;10.57;4.80;;;;;;;2.58;47.92;102090.03;5033425;28;20360;-79
2022/01/19 04:12:35;;;;;;;16.05;5.18;;;;;;;2.48;48.19;102104.44;5034016;28;20033;-79
2022/01/19 04:15:01;;;;;;;16.17;5.75;;;;;;;2.48;48.36;102110.63;5033362;28;20025;-79
2022/01/19 04:17:26;;;;;;;18.55;5.60;;;;;;;2.55;48.47;102121.97;5033458;28;20083;-78
2022/01/19 04:19:52;;;;;;;13.40;5.38;;;;;;;2.57;48.37;102125.47;5032997;28;20024;-77
2022/01/19 04:22:20;;;;;;;17.02;6.30;;;;;;;2.59;48.54;102123.66;5033769;28;20017;-79
2022/01/19 04:24:47;;;;;;;16.08;6.43;;;;;;;2.64;48.25;102119.09;5034056;28;20022;-77
2022/01/19 04:29:44;;;;;;;12.40;6.00;;;;;;;2.65;47.87;102128.81;5033908;28;20420;-79
2022/01/19 04:32:17;;;;;;;12.43;6.03;;;;;;;2.60;47.94;102112.97;5034377;28;20410;-78
2022/01/19 04:34:44;;;;;;;13.43;5.65;;;;;;;2.51;48.11;102115.88;5035868;28;20055;-79
2022/01/19 05:04:11;;;;;;;14.18;5.13;;;;;;;2.14;47.43;102129.13;5042865;28;20033;-79
2022/01/19 05:06:41;;;;;;;14.32;5.47;;;;;;;2.19;47.19;102132.56;5033413;28;20549;-81
2022/01/19 05:09:21;;;;;;;23.75;4.85;;;;;;;2.29;47.13;102151.81;5032589;28;20032;-79
2022/01/19 05:14:30;;;;;;;21.13;7.20;;;;;;;2.36;47.18;102157.84;5032805;28;20056;-77
2022/01/19 05:16:56;;;;;;;12.70;6.63;;;;;;;2.37;47.25;102165.78;5050614;28;20029;-78
2022/01/19 05:19:24;;;;;;;13.43;5.28;;;;;;;2.37;46.91;102164.91;5051689;28;20041;-78
2022/01/19 05:21:50;;;;;;;13.60;5.07;;;;;;;2.41;47.14;102171.91;5031837;28;20037;-77
2022/01/19 05:24:15;;;;;;;17.95;6.43;;;;;;;2.40;47.18;102173.69;5031632;28;20399;-80
2022/01/19 05:26:41;;;;;;;8.85;4.45;;;;;;;2.43;47.22;102170.94;5035034;28;20029;-80
2022/01/19 05:29:07;;;;;;;15.77;5.00;;;;;;;2.49;47.05;102165.50;5034709;28;20025;-78
2022/01/19 05:31:32;;;;;;;9.93;4.68;;;;;;;2.54;46.64;102162.72;5035285;28;20403;-77
2022/01/19 05:33:58;;;;;;;16.30;5.70;;;;;;;2.48;46.74;102169.06;5035314;28;20033;-78
2022/01/19 05:36:23;;;;;;;11.55;4.55;;;;;;;2.46;46.74;102164.69;5035365;28;20105;-78
2022/01/19 05:38:49;;;;;;;19.45;7.10;;;;;;;2.43;46.85;102162.09;5035383;28;20029;-78
2022/01/19 05:41:14;;;;;;;26.05;5.22;;;;;;;2.44;47.10;102171.84;5035444;28;20041;-78
2022/01/19 05:43:40;;;;;;;16.38;4.85;;;;;;;2.36;47.18;102168.47;5034812;28;20022;-79
2022/01/19 05:46:05;;;;;;;13.23;4.72;;;;;;;2.43;47.12;102175.38;5034750;28;20100;-79
2022/01/19 05:48:31;;;;;;;11.93;4.70;;;;;;;2.47;47.26;102182.38;5034814;28;20021;-79
2022/01/19 05:50:56;;;;;;;18.88;5.72;;;;;;;2.55;46.92;102180.41;5034890;28;20530;-79
2022/01/19 05:53:22;;;;;;;13.02;5.22;;;;;;;2.56;46.74;102193.66;5035022;28;20049;-80
2022/01/19 05:55:47;;;;;;;12.75;5.15;;;;;;;2.57;46.42;102197.16;5034588;28;20497;-80
2022/01/19 05:58:13;;;;;;;9.35;5.05;;;;;;;2.53;46.69;102185.78;5034933;28;20380;-79
2022/01/19 06:00:39;;;;;;;23.45;5.63;;;;;;;2.49;46.52;102200.03;5035017;28;20032;-78
2022/01/19 06:03:05;;;;;;;23.40;6.35;;;;;;;2.39;46.75;102198.47;5035097;28;20060;-80
2022/01/19 06:05:32;;;;;;;9.45;4.88;;;;;;;2.41;46.88;102217.91;5034748;28;20068;-80
2022/01/19 06:10:44;;;;;;;15.38;6.25;;;;;;;2.33;47.25;102232.25;5035080;28;20410;-80
2022/01/19 06:13:15;;;;;;;16.55;6.25;;;;;;;2.34;47.66;102228.69;5034665;28;20108;-78
2022/01/19 06:15:41;;;;;;;39.42;14.93;;;;;;;2.40;47.44;102237.41;5045420;28;20018;-80
2022/01/19 06:18:07;;;;;;;14.95;6.68;;;;;;;2.39;47.39;102227.69;5050208;28;20037;-79
2022/01/19 06:20:33;;;;;;;50.35;25.48;;;;;;;2.43;47.25;102240.00;5035946;28;20467;-79
2022/01/19 06:22:58;;;;;;;18.63;9.23;;;;;;;2.42;47.51;102248.84;5035403;28;20037;-79
2022/01/19 06:25:24;;;;;;;34.47;17.13;;;;;;;2.48;47.35;102237.22;5034878;28;20052;-79
2022/01/19 06:27:49;;;;;;;28.38;9.68;;;;;;;2.39;47.60;102242.72;5023843;28;20101;-78
2022/01/19 06:30:15;;;;;;;20.52;11.05;;;;;;;2.43;47.46;102247.06;5022042;28;20025;-78
2022/01/19 06:32:41;;;;;;;15.10;7.00;;;;;;;2.40;47.34;102249.81;5041541;28;20025;-80
2022/01/19 06:35:08;;;;;;;19.17;6.53;;;;;;;2.41;47.62;102259.53;5033094;28;20380;-77
2022/01/19 06:37:34;;;;;;;13.93;6.10;;;;;;;2.39;47.48;102253.34;5033085;28;20028;-77
2022/01/19 06:40:00;;;;;;;16.20;5.35;;;;;;;2.37;47.66;102252.53;5033660;28;20049;-77
2022/01/19 06:42:26;;;;;;;11.55;6.13;;;;;;;2.36;47.71;102250.75;5033804;28;20432;-77
2022/01/19 06:44:51;;;;;;;15.68;5.13;;;;;;;2.38;47.52;102256.94;5031950;28;20100;-76
2022/01/19 06:47:17;;;;;;;14.15;4.47;;;;;;;2.33;47.81;102250.84;5032311;28;20031;-76
2022/01/19 06:49:42;;;;;;;11.07;6.88;;;;;;;2.32;47.53;102242.03;5033039;28;20104;-77
2022/01/19 06:52:08;;;;;;;20.60;7.18;;;;;;;2.29;47.83;102238.56;5032630;28;20368;-77
2022/01/19 06:54:33;;;;;;;10.93;5.85;;;;;;;2.24;48.04;102240.41;5033409;28;20073;-78
2022/01/19 06:56:59;;;;;;;12.90;5.32;;;;;;;2.30;47.98;102237.63;5032857;28;20029;-78
2022/01/19 06:59:24;;;;;;;11.43;5.20;;;;;;;2.37;48.23;102239.25;5031908;28;20174;-79
2022/01/19 07:01:50;;;;;;;20.80;5.65;;;;;;;2.44;47.73;102251.50;5033253;28;20032;-78
2022/01/19 07:04:17;;;;;;;14.57;6.10;;;;;;;2.42;47.69;102242.66;5032035;28;20033;-77
2022/01/19 07:06:43;;;;;;;21.23;6.88;;;;;;;2.50;47.48;102251.34;5033434;28;20026;-78
2022/01/19 07:09:09;;;;;;;13.45;7.13;;;;;;;2.54;47.34;102247.69;5033000;28;20037;-76
2022/01/19 07:11:37;;;;;;;21.27;7.68;;;;;;;2.55;47.32;102250.34;5033414;28;20029;-76
2022/01/19 07:14:04;;;;;;;16.00;4.82;;;;;;;2.50;47.45;102238.06;5032808;28;20033;-76
2022/01/19 07:16:29;;;;;;;9.90;5.32;;;;;;;2.59;47.24;102246.72;5032825;28;20083;-77
2022/01/19 07:18:55;;;;;;;12.75;5.65;;;;;;;2.67;47.43;102243.88;5033311;28;20033;-76
2022/01/19 07:21:20;;;;;;;18.38;5.82;;;;;;;2.71;47.24;102245.56;5033153;28;20403;-78
2022/01/19 07:23:46;;;;;;;23.52;10.90;;;;;;;2.77;46.97;102244.53;5033820;28;20030;-78
2022/01/19 07:26:12;;;;;;;23.20;9.60;;;;;;;2.80;46.82;102245.34;5033171;28;20106;-78
2022/01/19 07:28:37;;;;;;;16.25;7.22;;;;;;;2.85;46.94;102243.44;5034139;28;20093;-80
2022/01/19 07:31:03;;;;;;;20.35;6.07;;;;;;;2.78;46.47;102236.53;5034403;28;20021;-80
2022/01/19 07:33:28;;;;;;;20.90;6.25;;;;;;;2.80;46.60;102234.72;5033368;28;20025;-78
2022/01/19 07:35:54;;;;;;;25.98;6.13;;;;;;;2.84;46.45;102225.78;5032968;28;20021;-80
2022/01/19 07:38:21;;;;;;;8.27;4.20;;;;;;;2.90;46.43;102215.00;5030389;28;20026;-78
2022/01/19 07:40:47;;;;;;;13.77;5.00;;;;;;;2.96;46.57;102214.84;5015138;28;20060;-77
2022/01/19 07:43:12;;;;;;;12.32;4.90;;;;;;;3.01;45.98;102228.00;5030219;28;20100;-78
2022/01/19 07:45:38;;;;;;;12.65;4.03;;;;;;;3.02;45.85;102227.97;5032820;28;20044;-78
2022/01/19 07:48:04;;;;;;;12.30;4.82;;;;;;;3.04;45.37;102215.50;5033008;28;20459;-79
2022/01/19 07:50:29;;;;;;;27.80;10.80;;;;;;;3.09;45.98;102224.22;5034156;28;20056;-81
2022/01/19 07:52:55;;;;;;;21.30;5.07;;;;;;;3.18;45.17;102225.81;5034400;28;20402;-81
2022/01/19 07:55:21;;;;;;;16.10;6.68;;;;;;;3.22;44.88;102216.81;5036184;28;20380;-80
2022/01/19 07:57:50;;;;;;;9.85;5.70;;;;;;;3.35;45.08;102206.75;5052096;28;20041;-79
2022/01/19 08:00:17;;;;;;;10.25;5.40;;;;;;;3.44;44.80;102201.19;5037886;28;20017;-79
2022/01/19 08:02:43;;;;;;;16.38;4.60;;;;;;;3.42;44.50;102187.94;5035795;28;20033;-80
2022/01/19 08:05:08;;;;;;;12.07;4.13;;;;;;;3.54;44.52;102200.03;5036802;28;20044;-80
2022/01/19 08:07:35;;;;;;;10.63;4.70;;;;;;;3.50;43.64;102190.38;5034729;28;20454;-79
2022/01/19 08:10:03;;;;;;;11.48;5.05;;;;;;;3.51;43.78;102186.81;5033324;28;20063;-79
2022/01/19 08:12:29;;;;;;;12.23;4.38;;;;;;;3.62;43.49;102196.22;5033889;28;20527;-78
2022/01/19 08:14:54;;;;;;;19.98;3.88;;;;;;;3.65;43.11;102208.56;5033505;28;20060;-80
2022/01/19 08:17:20;;;;;;;15.10;5.85;;;;;;;3.68;43.00;102187.19;5033396;28;20116;-80
2022/01/19 08:19:47;;;;;;;18.75;7.32;;;;;;;3.66;43.17;102187.25;5033011;28;20104;-79
2022/01/19 08:22:13;;;;;;;18.98;7.45;;;;;;;3.84;43.50;102197.38;5033427;28;20128;-78
2022/01/19 08:24:39;;;;;;;17.40;6.20;;;;;;;3.95;43.44;102198.84;5033220;28;20054;-78
2022/01/19 08:27:04;;;;;;;28.10;9.30;;;;;;;4.06;43.04;102186.97;5032602;28;20056;-79
2022/01/19 08:29:30;;;;;;;20.38;7.40;;;;;;;4.20;42.56;102195.41;5032726;28;20025;-80
2022/01/19 08:31:55;;;;;;;12.55;5.47;;;;;;;4.26;42.51;102189.91;5032469;28;20021;-78
2022/01/19 08:34:21;;;;;;;16.85;5.55;;;;;;;4.35;42.33;102194.97;5032646;28;20029;-78
2022/01/19 08:36:47;;;;;;;19.98;5.45;;;;;;;4.45;41.29;102197.34;5032253;28;20155;-77
2022/01/19 08:39:13;;;;;;;20.92;4.60;;;;;;;4.51;41.28;102194.47;5031240;28;20055;-78
2022/01/19 08:41:38;;;;;;;20.02;10.75;;;;;;;4.48;41.03;102194.56;5032932;28;20064;-78
2022/01/19 08:44:04;;;;;;;16.10;6.60;;;;;;;4.53;40.98;102195.28;5032805;28;20539;-79
2022/01/19 08:46:30;;;;;;;11.05;5.78;;;;;;;4.64;41.11;102190.50;5032614;28;20104;-79
2022/01/19 08:48:55;;;;;;;21.08;5.80;;;;;;;4.61;40.53;102193.28;5031061;28;20494;-80
2022/01/19 08:51:21;;;;;;;13.27;4.90;;;;;;;4.65;40.23;102174.47;5031655;28;20024;-79
2022/01/19 08:53:46;;;;;;;14.85;4.65;;;;;;;4.72;40.30;102184.00;5032048;28;20045;-79
2022/01/19 08:56:12;;;;;;;15.60;4.68;;;;;;;4.74;40.06;102186.66;5031428;28;20013;-79
2022/01/19 08:58:37;;;;;;;12.65;4.57;;;;;;;4.83;40.16;102179.19;5032774;28;20076;-80
2022/01/19 09:01:04;;;;;;;19.52;7.22;;;;;;;4.95;40.11;102192.13;5034873;28;20021;-79
2022/01/19 09:03:30;;;;;;;12.63;5.80;;;;;;;5.06;40.20;102175.78;5036497;28;20021;-79
2022/01/19 09:05:56;;;;;;;14.13;5.70;;;;;;;5.13;40.35;102174.66;5035954;28;20439;-81
2022/01/19 09:08:22;;;;;;;16.75;5.70;;;;;;;5.18;40.54;102187.81;5039917;28;20108;-80
2022/01/19 09:10:50;;;;;;;12.63;5.28;;;;;;;5.26;40.26;102175.94;5053018;28;20029;-79
2022/01/19 09:13:16;;;;;;;14.80;5.93;;;;;;;5.40;40.55;102173.69;5052406;28;20024;-80
2022/01/19 09:15:49;;;;;;;19.05;7.65;;;;;;;5.58;39.75;102165.94;5048752;28;20434;-80
2022/01/19 09:18:14;;;;;;;7.57;4.07;;;;;;;5.51;38.39;102157.28;5040709;28;20320;-80
2022/01/19 09:20:40;;;;;;;10.20;4.40;;;;;;;5.74;39.04;102164.47;5040702;28;20029;-79
2022/01/19 09:23:05;;;;;;;19.50;9.43;;;;;;;5.85;39.36;102167.59;5038438;28;20091;-80
2022/01/19 09:25:32;;;;;;;8.00;4.28;;;;;;;5.88;38.26;102159.50;5035907;28;20101;-80
2022/01/19 09:27:58;;;;;;;9.27;3.72;;;;;;;5.86;37.73;102159.56;5035784;28;20041;-79
2022/01/19 09:30:24;;;;;;;9.85;5.40;;;;;;;5.85;37.38;102164.91;5036841;28;20065;-81
2022/01/19 09:33:05;;;;;;;18.80;7.72;;;;;;;5.95;37.33;102166.34;5036307;28;20025;-79
2022/01/19 09:35:39;;;;;;;14.80;6.63;;;;;;;6.00;37.47;102169.72;5036569;28;20032;-81
2022/01/19 09:38:05;;;;;;;14.88;4.93;;;;;;;6.03;36.70;102169.59;5037636;28;20079;-79
2022/01/19 09:40:31;;;;;;;11.73;5.63;;;;;;;6.06;36.15;102163.25;5036411;28;20041;-78
2022/01/19 09:42:56;;;;;;;16.02;5.20;;;;;;;5.90;35.92;102152.31;5035095;28;20025;-79
2022/01/19 09:45:22;;;;;;;10.77;5.30;;;;;;;5.96;35.62;102165.44;5035593;28;20029;-79
2022/01/19 09:47:50;;;;;;;15.10;5.68;;;;;;;5.88;35.85;102162.16;5035975;28;20032;-79
2022/01/19 09:50:16;;;;;;;17.50;4.47;;;;;;;5.79;35.49;102138.44;5035761;28;20372;-79
2022/01/19 09:52:41;;;;;;;11.43;5.50;;;;;;;5.74;35.32;102145.78;5034442;28;20028;-78
2022/01/19 09:55:07;;;;;;;11.43;5.15;;;;;;;5.70;36.16;102160.16;5034545;28;20127;-79
2022/01/19 09:57:33;;;;;;;12.90;4.95;;;;;;;5.74;36.08;102140.44;5034301;28;20017;-78
2022/01/19 09:59:59;;;;;;;11.00;4.53;;;;;;;5.78;35.99;102136.72;5034975;28;20032;-79
2022/01/19 10:02:24;;;;;;;7.25;4.82;;;;;;;5.90;36.00;102138.97;5034819;28;20026;-79
2022/01/19 10:04:51;;;;;;;10.43;4.75;;;;;;;6.05;36.17;102140.19;5034161;28;20028;-79
2022/01/19 10:07:22;;;;;;;15.55;4.72;;;;;;;6.09;36.28;102136.44;5034581;28;20041;-80
2022/01/19 10:09:53;;;;;;;13.35;5.22;;;;;;;6.18;36.17;102136.94;5034484;28;20344;-80
2022/01/19 10:18:25;;;;;;;13.27;6.32;;;;;;;6.10;36.03;102123.03;5034816;28;20510;-82
2022/01/19 10:21:05;;;;;;;20.40;6.63;;;;;;;6.06;36.24;102110.72;5033656;28;20065;-79
2022/01/19 10:23:48;;;;;;;15.98;6.47;;;;;;;6.05;36.98;102109.00;5034091;28;20529;-79
2022/01/19 10:26:15;;;;;;;13.38;5.80;;;;;;;6.08;37.16;102108.00;5014937;28;20097;-83
2022/01/19 10:29:01;;;;;;;14.02;5.43;;;;;;;6.28;37.87;102122.31;5033942;28;20024;-79
2022/01/19 10:31:29;;;;;;;10.85;5.10;;;;;;;6.23;37.62;102113.63;5033486;28;20021;-77
2022/01/19 10:34:20;;;;;;;15.63;5.75;;;;;;;6.24;36.83;102110.00;5033805;28;20103;-79
2022/01/19 10:36:57;;;;;;;12.50;5.30;;;;;;;6.15;36.63;102107.69;5034108;28;20025;-80
2022/01/19 10:39:37;;;;;;;14.75;5.72;;;;;;;6.08;37.20;102103.53;5034333;28;20025;-79
2022/01/19 10:42:12;;;;;;;12.90;5.82;;;;;;;6.24;36.64;102107.31;5032792;28;20407;-80
2022/01/19 10:44:40;;;;;;;14.45;4.95;;;;;;;6.32;36.41;102102.56;5033681;28;20112;-78
2022/01/19 10:47:06;;;;;;;10.32;5.63;;;;;;;6.28;35.46;102111.63;5034526;28;20025;-80
2022/01/19 10:49:50;;;;;;;14.93;6.15;;;;;;;6.22;35.87;102101.19;5034360;28;20128;-79
2022/01/19 10:52:31;;;;;;;8.60;5.03;;;;;;;6.17;36.01;102087.16;5033046;28;20060;-79
2022/01/19 10:54:59;;;;;;;17.55;7.60;;;;;;;6.26;36.38;102086.78;5033986;28;20029;-78
2022/01/19 10:57:26;;;;;;;10.65;4.82;;;;;;;6.31;36.09;102092.78;5031774;28;20033;-78
2022/01/19 10:59:53;;;;;;;8.55;5.72;;;;;;;6.34;36.65;102084.66;5033394;28;20036;-79
2022/01/19 11:02:19;;;;;;;16.65;6.45;;;;;;;6.47;36.45;102093.03;5033383;28;20055;-80
2022/01/19 11:04:45;;;;;;;25.17;10.23;;;;;;;6.66;35.22;102082.47;5033300;28;20030;-79
2022/01/19 11:07:19;;;;;;;21.00;8.68;;;;;;;6.66;33.82;102075.31;5032956;28;20025;-79
2022/01/19 11:09:55;;;;;;;21.05;9.52;;;;;;;6.76;34.46;102070.47;5034071;28;20084;-81
2022/01/19 11:12:24;;;;;;;19.80;7.63;;;;;;;6.81;32.87;102069.31;5034198;28;20037;-80
2022/01/19 11:14:50;;;;;;;9.82;5.20;;;;;;;7.10;32.70;102086.75;5036028;28;20026;-81
2022/01/19 11:17:17;;;;;;;12.32;5.07;;;;;;;7.19;32.46;102083.69;5032003;28;20033;-79
2022/01/19 11:19:45;;;;;;;18.25;6.20;;;;;;;7.40;32.95;102080.03;5033802;28;20029;-80
2022/01/19 11:22:50;;;;;;;13.52;6.28;;;;;;;7.67;32.26;102078.78;5032530;28;20549;-78
2022/01/19 11:25:31;;;;;;;15.43;8.13;;;;;;;7.84;31.07;102071.78;5031501;28;20080;-85
2022/01/19 11:27:57;;;;;;;15.85;6.18;;;;;;;7.79;31.27;102065.78;5031885;28;20032;-80
2022/01/19 11:30:27;;;;;;;10.13;5.05;;;;;;;7.75;30.32;102054.34;5033040;28;20384;-80
2022/01/19 11:33:27;;;;;;;10.38;4.97;;;;;;;7.82;30.33;102053.13;5032816;28;20039;-80
2022/01/19 11:36:01;;;;;;;11.00;5.45;;;;;;;7.75;29.74;102064.19;5010769;28;20489;-79
2022/01/19 11:38:46;;;;;;;18.00;6.50;;;;;;;7.58;29.86;102057.78;5033036;28;20257;-84
2022/01/19 11:41:14;;;;;;;7.43;3.88;;;;;;;7.37;30.30;102058.78;5033233;28;20115;-82
2022/01/19 11:43:56;;;;;;;11.73;4.50;;;;;;;7.17;31.49;102044.56;5032907;28;20052;-79
2022/01/19 11:46:46;;;;;;;18.92;7.63;;;;;;;7.23;31.96;102042.47;5033972;28;20029;-79
2022/01/19 11:49:19;;;;;;;9.75;6.07;;;;;;;7.38;32.27;102056.97;5034147;28;20025;-80
2022/01/19 11:51:55;;;;;;;17.40;6.55;;;;;;;7.59;32.54;102037.25;5032487;28;20033;-78
2022/01/19 11:54:33;;;;;;;12.38;6.05;;;;;;;7.74;31.77;102030.28;5032948;28;20057;-78
2022/01/19 11:56:58;;;;;;;18.65;5.72;;;;;;;7.90;31.54;102048.25;5033034;28;20108;-79
2022/01/19 11:59:26;;;;;;;9.30;5.65;;;;;;;7.88;31.40;102028.72;5032919;28;20125;-80
2022/01/19 12:01:52;;;;;;;8.35;5.38;;;;;;;8.05;31.55;102014.50;5031774;28;20064;-80
2022/01/19 12:04:22;;;;;;;13.80;6.10;;;;;;;8.36;31.04;102021.94;5033903;28;20033;-82
2022/01/19 12:06:49;;;;;;;9.15;4.85;;;;;;;8.40;31.09;102024.41;5033343;28;20057;-80
2022/01/19 12:09:16;;;;;;;7.35;4.40;;;;;;;8.35;30.38;102013.00;5035747;28;20111;-83
2022/01/19 12:11:49;;;;;;;11.07;6.03;;;;;;;8.32;31.14;102017.69;5035106;28;20033;-80
2022/01/19 12:14:20;;;;;;;19.92;5.72;;;;;;;8.49;31.56;102010.53;5033845;28;20033;-78
2022/01/19 12:17:25;;;;;;;9.18;5.32;;;;;;;8.77;31.52;102015.34;5032650;28;20081;-82
2022/01/19 12:19:50;;;;;;;8.75;4.95;;;;;;;8.63;30.01;102008.00;5033866;28;20025;-80
2022/01/19 12:22:28;;;;;;;8.68;5.18;;;;;;;8.54;29.25;102005.78;5036181;28;20384;-78
2022/01/19 12:25:02;;;;;;;9.23;4.63;;;;;;;8.54;29.64;102013.81;5034808;28;20037;-80
2022/01/19 12:27:34;;;;;;;18.00;6.53;;;;;;;8.66;30.05;102007.84;5033371;28;20033;-80
2022/01/19 12:30:05;;;;;;;12.15;5.03;;;;;;;8.73;29.99;102020.00;5032272;28;20025;-78
2022/01/19 12:32:38;;;;;;;10.30;4.85;;;;;;;8.84;29.58;102011.38;5031733;28;20040;-78
2022/01/19 12:35:41;;;;;;;18.95;5.43;;;;;;;8.83;29.07;102032.94;5032919;28;20132;-78
2022/01/19 12:38:19;;;;;;;8.90;4.13;;;;;;;8.63;27.42;102009.81;4974914;28;20097;-78
2022/01/19 12:40:47;;;;;;;7.68;3.97;;;;;;;8.48;27.81;102024.00;5029740;28;20052;-79
2022/01/19 12:43:46;;;;;;;8.75;4.40;;;;;;;8.13;29.18;102023.88;5036139;28;20085;-80
2022/01/19 12:46:13;;;;;;;9.35;4.38;;;;;;;7.85;29.71;102017.28;5036566;28;20392;-80
2022/01/19 12:48:47;;;;;;;7.57;4.07;;;;;;;7.79;30.52;102022.94;5036810;28;20039;-79
2022/01/19 12:51:34;;;;;;;9.75;4.68;;;;;;;7.64;30.13;102006.63;5036080;28;20026;-77
2022/01/19 12:53:59;;;;;;;22.30;6.35;;;;;;;7.67;30.89;101998.44;5037426;28;20022;-79
2022/01/19 12:56:25;;;;;;;14.80;8.35;;;;;;;7.79;30.99;102010.41;5036473;28;20101;-78
2022/01/19 12:58:51;;;;;;;43.92;7.32;;;;;;;7.91;31.99;102007.16;5036420;28;20422;-79
2022/01/19 13:01:16;;;;;;;25.45;9.45;;;;;;;8.00;32.29;102005.81;5034563;28;20017;-79
2022/01/19 13:03:44;;;;;;;33.97;12.07;;;;;;;8.09;31.34;101994.66;5054301;28;20017;-79
2022/01/19 13:06:13;;;;;;;16.85;6.68;;;;;;;8.00;31.96;102001.34;5056399;28;20401;-79